METAR AND TAF INFORMATION
METAR FOR LGKR
ADDS - METARS form results

(0038 UTC 18 July 2018)
Data provider http://aviationweather.gov/adds/metars/
 
METAR text: LGKR 180020Z 30008KT 9999 FEW016 25/21 Q1007 NOSIG
Conditions at: LGKR (IOANNIS KAPODIST, GR) observed 0020 UTC 18 July 2018
Temperature: 25.0°C (77°F)
Dewpoint: 21.0°C (70°F) [RH = 79%]
Pressure (altimeter): 29.73 inches Hg (1007.0 mb)
Winds: from the WNW (300 degrees) at 9 MPH (8 knots; 4.2 m/s)
Visibility: 6 or more miles (10+ km)
Ceiling: at least 12,000 feet AGL
Clouds: few clouds at 1600 feet AGL
Weather: no significant weather observed at this time

METAR text: LGKR 172350Z 29008KT 9999 FEW016 25/21 Q1007 NOSIG
Conditions at: LGKR (IOANNIS KAPODIST, GR) observed 2350 UTC 17 July 2018
Temperature: 25.0°C (77°F)
Dewpoint: 21.0°C (70°F) [RH = 79%]
Pressure (altimeter): 29.73 inches Hg (1007.0 mb)
Winds: from the WNW (290 degrees) at 9 MPH (8 knots; 4.2 m/s)
Visibility: 6 or more miles (10+ km)
Ceiling: at least 12,000 feet AGL
Clouds: few clouds at 1600 feet AGL
Weather: no significant weather observed at this time

Forecast for: LGKR (IOANNIS KAPODIST, GR)
Text: TAF LGKR 172300Z 1800/1824 32015KT 9999 FEW016 SCT080
Forecast period: 0000 to 1000 UTC 18 July 2018
Forecast type: FROM: standard forecast or significant change
Winds: from the NW (320 degrees) at 17 MPH (15 knots; 7.8 m/s)
Visibility: 6 or more miles (10+ km)
Clouds: few clouds at 1600 feet AGL
scattered clouds at 8000 feet AGL
Weather: no significant weather forecast for this period
Text: BECMG 1810/1812 32015G25KT
Forecast period: 1000 UTC 18 July 2018 to 0000 UTC 19 July 2018
Forecast type: BECOMING: Conditions expected to become as follows by 1200 UTC 18 July 2018
Winds: from the NW (320 degrees) at 17 MPH (15 knots; 7.8 m/s)
gusting to 29 MPH (25 knots; 13.0 m/s)
Visibility: 6 or more miles (10+ km)
Clouds: few clouds at 1600 feet AGL
scattered clouds at 8000 feet AGL
Weather: no significant weather forecast for this period

 AIRPORT MAP

 RUNWAY INFORMATION
Runway 17 Runway length 7792 ft Runway width 148 ft
Runway elevation 5 ft Runway displaced threshold 1348 ft Runway heading 169
Runway 35 Runway length 7792 ft Runway width 148 ft
Runway elevation 5 ft Runway displaced threshold 213 ft Runway heading 349

 AIRPORT FREQUENCIES
Type A/G Name KERKIRA RD Frequency 563.7 MHZ
Type APP Name KERKIRA AP Frequency 118.075 MHZ
Type ATIS Name ATIS Frequency 126.35 MHZ
Type TWR Name KERKIRA TW Frequency 120.85 MHZ

 AIRPORT NEAR NAVIGATION AIDS
Type VOR-DME Name Garitsa Frequency 108800 KHZ
Type NDB Name Kerkira Frequency 403 KHZ
Type VOR-DME Name Kerkira Frequency 114700 KHZ



Air Greece virtual AIrline - All rights reserved 2018 - Powered by Virtual Airlines Manager [v2.6.2]